sensor_id;sensor_type;location;lat;lon;timestamp;P1;durP1;ratioP1;P2;durP2;ratioP2
45676;SDS011;31390;51.186;6.830;2022-11-20T00:00:01;24.07;;;20.93;;
45676;SDS011;31390;51.186;6.830;2022-11-20T00:02:32;23.77;;;21.27;;
45676;SDS011;31390;51.186;6.830;2022-11-20T00:04:58;22.40;;;20.03;;
45676;SDS011;31390;51.186;6.830;2022-11-20T00:07:25;22.10;;;19.70;;
45676;SDS011;31390;51.186;6.830;2022-11-20T00:09:52;24.43;;;21.57;;
45676;SDS011;31390;51.186;6.830;2022-11-20T00:12:18;24.83;;;22.17;;
45676;SDS011;31390;51.186;6.830;2022-11-20T00:14:44;26.30;;;22.73;;
45676;SDS011;31390;51.186;6.830;2022-11-20T00:17:11;26.73;;;23.43;;
45676;SDS011;31390;51.186;6.830;2022-11-20T00:19:37;25.63;;;22.57;;
45676;SDS011;31390;51.186;6.830;2022-11-20T00:22:04;25.73;;;22.93;;
45676;SDS011;31390;51.186;6.830;2022-11-20T00:24:30;26.83;;;23.37;;
45676;SDS011;31390;51.186;6.830;2022-11-20T00:26:57;24.37;;;21.87;;
45676;SDS011;31390;51.186;6.830;2022-11-20T00:29:23;25.83;;;23.00;;
45676;SDS011;31390;51.186;6.830;2022-11-20T00:31:50;30.40;;;26.70;;
45676;SDS011;31390;51.186;6.830;2022-11-20T00:34:16;31.10;;;26.93;;
45676;SDS011;31390;51.186;6.830;2022-11-20T00:36:43;29.70;;;25.57;;
45676;SDS011;31390;51.186;6.830;2022-11-20T00:39:09;24.97;;;22.27;;
45676;SDS011;31390;51.186;6.830;2022-11-20T00:41:38;26.83;;;23.70;;
45676;SDS011;31390;51.186;6.830;2022-11-20T00:44:04;26.40;;;22.87;;
45676;SDS011;31390;51.186;6.830;2022-11-20T00:46:31;24.40;;;21.80;;
45676;SDS011;31390;51.186;6.830;2022-11-20T00:48:57;27.47;;;24.27;;
45676;SDS011;31390;51.186;6.830;2022-11-20T00:51:25;27.40;;;23.97;;
45676;SDS011;31390;51.186;6.830;2022-11-20T00:53:52;26.17;;;23.37;;
45676;SDS011;31390;51.186;6.830;2022-11-20T00:56:18;26.20;;;23.40;;
45676;SDS011;31390;51.186;6.830;2022-11-20T00:58:46;27.27;;;23.90;;
45676;SDS011;31390;51.186;6.830;2022-11-20T01:01:14;29.47;;;24.63;;
45676;SDS011;31390;51.186;6.830;2022-11-20T01:03:42;29.37;;;24.53;;
45676;SDS011;31390;51.186;6.830;2022-11-20T01:06:13;28.20;;;24.50;;
45676;SDS011;31390;51.186;6.830;2022-11-20T01:08:40;27.83;;;24.80;;
45676;SDS011;31390;51.186;6.830;2022-11-20T01:11:09;27.10;;;23.30;;
45676;SDS011;31390;51.186;6.830;2022-11-20T01:13:36;25.63;;;22.83;;
45676;SDS011;31390;51.186;6.830;2022-11-20T01:16:16;25.90;;;22.40;;
45676;SDS011;31390;51.186;6.830;2022-11-20T01:18:44;28.60;;;24.10;;
45676;SDS011;31390;51.186;6.830;2022-11-20T01:21:15;32.83;;;26.50;;
45676;SDS011;31390;51.186;6.830;2022-11-20T01:23:42;27.13;;;24.23;;
45676;SDS011;31390;51.186;6.830;2022-11-20T01:26:11;28.80;;;24.53;;
45676;SDS011;31390;51.186;6.830;2022-11-20T01:28:38;29.23;;;25.90;;
45676;SDS011;31390;51.186;6.830;2022-11-20T01:31:12;29.10;;;25.60;;
45676;SDS011;31390;51.186;6.830;2022-11-20T01:33:39;26.90;;;23.83;;
45676;SDS011;31390;51.186;6.830;2022-11-20T01:36:07;27.30;;;23.07;;
45676;SDS011;31390;51.186;6.830;2022-11-20T01:38:33;30.23;;;25.43;;
45676;SDS011;31390;51.186;6.830;2022-11-20T01:41:00;31.83;;;27.03;;
45676;SDS011;31390;51.186;6.830;2022-11-20T01:43:26;28.63;;;24.73;;
45676;SDS011;31390;51.186;6.830;2022-11-20T01:46:02;27.20;;;24.27;;
45676;SDS011;31390;51.186;6.830;2022-11-20T01:48:30;25.47;;;22.77;;
45676;SDS011;31390;51.186;6.830;2022-11-20T01:50:58;26.70;;;23.57;;
45676;SDS011;31390;51.186;6.830;2022-11-20T01:53:27;26.60;;;23.60;;
45676;SDS011;31390;51.186;6.830;2022-11-20T01:55:55;26.83;;;23.38;;
45676;SDS011;31390;51.186;6.830;2022-11-20T01:58:24;26.33;;;22.83;;
45676;SDS011;31390;51.186;6.830;2022-11-20T02:00:51;27.17;;;23.43;;
45676;SDS011;31390;51.186;6.830;2022-11-20T02:03:18;27.13;;;23.37;;
45676;SDS011;31390;51.186;6.830;2022-11-20T02:08:15;25.40;;;22.67;;
45676;SDS011;31390;51.186;6.830;2022-11-20T02:10:42;25.43;;;22.43;;
45676;SDS011;31390;51.186;6.830;2022-11-20T02:13:08;26.20;;;22.90;;
45676;SDS011;31390;51.186;6.830;2022-11-20T02:15:54;24.77;;;22.07;;
45676;SDS011;31390;51.186;6.830;2022-11-20T02:18:20;25.77;;;23.07;;
45676;SDS011;31390;51.186;6.830;2022-11-20T02:20:48;24.70;;;22.07;;
45676;SDS011;31390;51.186;6.830;2022-11-20T02:25:47;24.73;;;22.13;;
45676;SDS011;31390;51.186;6.830;2022-11-20T02:28:15;24.73;;;22.10;;
45676;SDS011;31390;51.186;6.830;2022-11-20T02:30:42;23.37;;;20.87;;
45676;SDS011;31390;51.186;6.830;2022-11-20T02:33:09;21.93;;;19.63;;
45676;SDS011;31390;51.186;6.830;2022-11-20T02:35:40;23.63;;;21.17;;
45676;SDS011;31390;51.186;6.830;2022-11-20T02:38:07;21.30;;;19.20;;
45676;SDS011;31390;51.186;6.830;2022-11-20T02:40:33;22.07;;;19.73;;
45676;SDS011;31390;51.186;6.830;2022-11-20T02:43:00;23.43;;;19.93;;
45676;SDS011;31390;51.186;6.830;2022-11-20T02:45:26;22.00;;;19.73;;
45676;SDS011;31390;51.186;6.830;2022-11-20T02:47:53;22.70;;;20.17;;
45676;SDS011;31390;51.186;6.830;2022-11-20T02:50:19;23.30;;;20.80;;
45676;SDS011;31390;51.186;6.830;2022-11-20T02:52:46;24.50;;;20.80;;
45676;SDS011;31390;51.186;6.830;2022-11-20T02:55:12;23.87;;;20.63;;
45676;SDS011;31390;51.186;6.830;2022-11-20T02:57:38;22.17;;;19.77;;
45676;SDS011;31390;51.186;6.830;2022-11-20T03:00:06;22.70;;;19.80;;
45676;SDS011;31390;51.186;6.830;2022-11-20T03:02:33;23.00;;;20.53;;
45676;SDS011;31390;51.186;6.830;2022-11-20T03:04:59;22.97;;;20.63;;
45676;SDS011;31390;51.186;6.830;2022-11-20T03:07:26;25.60;;;21.20;;
45676;SDS011;31390;51.186;6.830;2022-11-20T03:09:52;24.50;;;21.67;;
45676;SDS011;31390;51.186;6.830;2022-11-20T03:12:19;23.70;;;21.20;;
45676;SDS011;31390;51.186;6.830;2022-11-20T03:14:45;25.20;;;21.77;;
45676;SDS011;31390;51.186;6.830;2022-11-20T03:17:18;24.60;;;22.00;;
45676;SDS011;31390;51.186;6.830;2022-11-20T03:19:44;25.63;;;21.77;;
45676;SDS011;31390;51.186;6.830;2022-11-20T03:22:11;25.73;;;22.50;;
45676;SDS011;31390;51.186;6.830;2022-11-20T03:24:37;25.47;;;22.30;;
45676;SDS011;31390;51.186;6.830;2022-11-20T03:27:04;23.73;;;21.13;;
45676;SDS011;31390;51.186;6.830;2022-11-20T03:29:30;24.10;;;21.50;;
45676;SDS011;31390;51.186;6.830;2022-11-20T03:31:57;22.70;;;20.23;;
45676;SDS011;31390;51.186;6.830;2022-11-20T03:34:23;25.67;;;21.00;;
45676;SDS011;31390;51.186;6.830;2022-11-20T03:36:50;24.37;;;21.50;;
45676;SDS011;31390;51.186;6.830;2022-11-20T03:39:16;24.83;;;21.37;;
45676;SDS011;31390;51.186;6.830;2022-11-20T03:41:43;26.67;;;23.47;;
45676;SDS011;31390;51.186;6.830;2022-11-20T03:44:10;25.03;;;22.33;;
45676;SDS011;31390;51.186;6.830;2022-11-20T03:46:37;25.23;;;21.57;;
45676;SDS011;31390;51.186;6.830;2022-11-20T03:49:04;24.30;;;21.70;;
45676;SDS011;31390;51.186;6.830;2022-11-20T03:51:31;24.87;;;22.17;;
45676;SDS011;31390;51.186;6.830;2022-11-20T03:53:59;27.03;;;24.00;;
45676;SDS011;31390;51.186;6.830;2022-11-20T03:56:28;25.07;;;22.13;;
45676;SDS011;31390;51.186;6.830;2022-11-20T03:58:54;24.50;;;21.83;;
45676;SDS011;31390;51.186;6.830;2022-11-20T04:01:22;24.10;;;21.33;;
45676;SDS011;31390;51.186;6.830;2022-11-20T04:03:49;24.73;;;22.13;;
45676;SDS011;31390;51.186;6.830;2022-11-20T04:06:18;26.70;;;23.60;;
45676;SDS011;31390;51.186;6.830;2022-11-20T04:08:45;25.03;;;21.23;;
45676;SDS011;31390;51.186;6.830;2022-11-20T04:11:20;28.60;;;23.40;;
45676;SDS011;31390;51.186;6.830;2022-11-20T04:13:51;24.90;;;22.23;;
45676;SDS011;31390;51.186;6.830;2022-11-20T04:16:21;25.60;;;21.73;;
45676;SDS011;31390;51.186;6.830;2022-11-20T04:18:58;25.57;;;22.77;;
45676;SDS011;31390;51.186;6.830;2022-11-20T04:21:25;27.50;;;22.73;;
45676;SDS011;31390;51.186;6.830;2022-11-20T04:23:52;25.63;;;22.83;;
45676;SDS011;31390;51.186;6.830;2022-11-20T04:26:22;29.10;;;24.50;;
45676;SDS011;31390;51.186;6.830;2022-11-20T04:28:49;25.00;;;22.30;;
45676;SDS011;31390;51.186;6.830;2022-11-20T04:31:19;23.47;;;21.13;;
45676;SDS011;31390;51.186;6.830;2022-11-20T04:33:46;25.73;;;22.83;;
45676;SDS011;31390;51.186;6.830;2022-11-20T04:36:17;27.93;;;23.37;;
45676;SDS011;31390;51.186;6.830;2022-11-20T04:38:44;28.60;;;24.17;;
45676;SDS011;31390;51.186;6.830;2022-11-20T04:41:17;27.33;;;23.80;;
45676;SDS011;31390;51.186;6.830;2022-11-20T04:43:47;25.80;;;22.30;;
45676;SDS011;31390;51.186;6.830;2022-11-20T04:46:17;24.37;;;21.90;;
45676;SDS011;31390;51.186;6.830;2022-11-20T04:48:44;24.50;;;21.10;;
45676;SDS011;31390;51.186;6.830;2022-11-20T04:51:11;23.77;;;21.33;;
45676;SDS011;31390;51.186;6.830;2022-11-20T04:53:37;24.23;;;21.63;;
45676;SDS011;31390;51.186;6.830;2022-11-20T04:56:05;24.97;;;22.27;;
45676;SDS011;31390;51.186;6.830;2022-11-20T04:58:32;24.37;;;21.77;;
45676;SDS011;31390;51.186;6.830;2022-11-20T05:01:06;23.77;;;21.17;;
45676;SDS011;31390;51.186;6.830;2022-11-20T05:03:33;24.43;;;21.83;;
45676;SDS011;31390;51.186;6.830;2022-11-20T05:06:06;27.87;;;23.80;;
45676;SDS011;31390;51.186;6.830;2022-11-20T05:08:33;26.70;;;22.60;;
45676;SDS011;31390;51.186;6.830;2022-11-20T05:11:07;24.53;;;21.93;;
45676;SDS011;31390;51.186;6.830;2022-11-20T05:13:33;25.13;;;22.10;;
45676;SDS011;31390;51.186;6.830;2022-11-20T05:16:01;23.93;;;21.23;;
45676;SDS011;31390;51.186;6.830;2022-11-20T05:18:28;25.13;;;22.20;;
45676;SDS011;31390;51.186;6.830;2022-11-20T05:20:55;25.43;;;22.00;;
45676;SDS011;31390;51.186;6.830;2022-11-20T05:23:22;25.13;;;22.33;;
45676;SDS011;31390;51.186;6.830;2022-11-20T05:25:51;25.40;;;22.53;;
45676;SDS011;31390;51.186;6.830;2022-11-20T05:28:24;26.50;;;23.67;;
45676;SDS011;31390;51.186;6.830;2022-11-20T05:30:51;28.33;;;24.47;;
45676;SDS011;31390;51.186;6.830;2022-11-20T05:33:17;27.90;;;23.93;;
45676;SDS011;31390;51.186;6.830;2022-11-20T05:35:44;24.93;;;22.33;;
45676;SDS011;31390;51.186;6.830;2022-11-20T05:38:11;28.27;;;24.27;;
45676;SDS011;31390;51.186;6.830;2022-11-20T05:40:37;25.70;;;22.77;;
45676;SDS011;31390;51.186;6.830;2022-11-20T05:43:04;27.13;;;24.17;;
45676;SDS011;31390;51.186;6.830;2022-11-20T05:45:30;27.50;;;24.03;;
45676;SDS011;31390;51.186;6.830;2022-11-20T05:47:59;28.77;;;24.37;;
45676;SDS011;31390;51.186;6.830;2022-11-20T05:50:27;27.60;;;24.23;;
45676;SDS011;31390;51.186;6.830;2022-11-20T05:52:53;26.07;;;23.27;;
45676;SDS011;31390;51.186;6.830;2022-11-20T05:55:20;24.83;;;22.17;;
45676;SDS011;31390;51.186;6.830;2022-11-20T05:57:46;26.97;;;24.07;;
45676;SDS011;31390;51.186;6.830;2022-11-20T06:00:13;23.87;;;20.73;;
45676;SDS011;31390;51.186;6.830;2022-11-20T06:02:39;28.27;;;24.20;;
45676;SDS011;31390;51.186;6.830;2022-11-20T06:05:06;24.83;;;22.17;;
45676;SDS011;31390;51.186;6.830;2022-11-20T06:07:33;27.83;;;24.93;;
45676;SDS011;31390;51.186;6.830;2022-11-20T06:09:59;27.93;;;24.93;;
45676;SDS011;31390;51.186;6.830;2022-11-20T06:12:26;26.87;;;23.97;;
45676;SDS011;31390;51.186;6.830;2022-11-20T06:14:52;25.20;;;22.43;;
45676;SDS011;31390;51.186;6.830;2022-11-20T06:17:19;25.60;;;22.80;;
45676;SDS011;31390;51.186;6.830;2022-11-20T06:19:45;24.57;;;21.90;;
45676;SDS011;31390;51.186;6.830;2022-11-20T06:22:11;27.63;;;23.87;;
45676;SDS011;31390;51.186;6.830;2022-11-20T06:24:38;26.77;;;23.80;;
45676;SDS011;31390;51.186;6.830;2022-11-20T06:27:04;26.00;;;23.30;;
45676;SDS011;31390;51.186;6.830;2022-11-20T06:29:31;26.90;;;24.10;;
45676;SDS011;31390;51.186;6.830;2022-11-20T06:31:59;25.63;;;22.93;;
45676;SDS011;31390;51.186;6.830;2022-11-20T06:34:26;28.00;;;25.00;;
45676;SDS011;31390;51.186;6.830;2022-11-20T06:36:52;28.53;;;24.57;;
45676;SDS011;31390;51.186;6.830;2022-11-20T06:39:18;24.67;;;22.07;;
45676;SDS011;31390;51.186;6.830;2022-11-20T06:41:46;27.70;;;24.43;;
45676;SDS011;31390;51.186;6.830;2022-11-20T06:44:12;27.50;;;24.30;;
45676;SDS011;31390;51.186;6.830;2022-11-20T06:46:39;26.07;;;22.83;;
45676;SDS011;31390;51.186;6.830;2022-11-20T06:49:05;27.30;;;24.37;;
45676;SDS011;31390;51.186;6.830;2022-11-20T06:51:32;25.77;;;22.97;;
45676;SDS011;31390;51.186;6.830;2022-11-20T06:53:58;27.63;;;23.80;;
45676;SDS011;31390;51.186;6.830;2022-11-20T06:56:27;25.50;;;22.47;;
45676;SDS011;31390;51.186;6.830;2022-11-20T06:58:54;25.73;;;21.97;;
45676;SDS011;31390;51.186;6.830;2022-11-20T07:01:20;26.17;;;22.57;;
45676;SDS011;31390;51.186;6.830;2022-11-20T07:03:48;30.30;;;25.10;;
45676;SDS011;31390;51.186;6.830;2022-11-20T07:06:19;27.43;;;23.87;;
45676;SDS011;31390;51.186;6.830;2022-11-20T07:08:46;28.70;;;23.93;;
45676;SDS011;31390;51.186;6.830;2022-11-20T07:11:13;31.33;;;24.57;;
45676;SDS011;31390;51.186;6.830;2022-11-20T07:13:40;29.40;;;24.30;;
45676;SDS011;31390;51.186;6.830;2022-11-20T07:16:07;33.63;;;25.03;;
45676;SDS011;31390;51.186;6.830;2022-11-20T07:18:34;31.23;;;24.37;;
45676;SDS011;31390;51.186;6.830;2022-11-20T07:21:07;28.83;;;24.30;;
45676;SDS011;31390;51.186;6.830;2022-11-20T07:23:34;33.27;;;26.27;;
45676;SDS011;31390;51.186;6.830;2022-11-20T07:26:04;37.23;;;27.30;;
45676;SDS011;31390;51.186;6.830;2022-11-20T07:28:31;31.07;;;25.07;;
45676;SDS011;31390;51.186;6.830;2022-11-20T07:30:57;35.00;;;27.13;;
45676;SDS011;31390;51.186;6.830;2022-11-20T07:33:24;34.13;;;26.70;;
45676;SDS011;31390;51.186;6.830;2022-11-20T07:35:50;34.63;;;27.73;;
45676;SDS011;31390;51.186;6.830;2022-11-20T07:38:17;45.93;;;33.30;;
45676;SDS011;31390;51.186;6.830;2022-11-20T07:40:43;41.47;;;32.93;;
45676;SDS011;31390;51.186;6.830;2022-11-20T07:43:10;37.40;;;30.47;;
45676;SDS011;31390;51.186;6.830;2022-11-20T07:45:37;38.53;;;31.90;;
45676;SDS011;31390;51.186;6.830;2022-11-20T07:48:03;41.93;;;33.57;;
45676;SDS011;31390;51.186;6.830;2022-11-20T07:50:30;42.73;;;33.13;;
45676;SDS011;31390;51.186;6.830;2022-11-20T07:53:00;38.40;;;32.67;;
45676;SDS011;31390;51.186;6.830;2022-11-20T07:55:27;40.93;;;34.13;;
45676;SDS011;31390;51.186;6.830;2022-11-20T07:57:58;45.67;;;35.47;;
45676;SDS011;31390;51.186;6.830;2022-11-20T08:00:27;40.53;;;33.27;;
45676;SDS011;31390;51.186;6.830;2022-11-20T08:02:54;42.63;;;34.87;;
45676;SDS011;31390;51.186;6.830;2022-11-20T08:05:21;41.27;;;33.93;;
45676;SDS011;31390;51.186;6.830;2022-11-20T08:07:48;43.30;;;34.17;;
45676;SDS011;31390;51.186;6.830;2022-11-20T08:10:15;42.33;;;33.93;;
45676;SDS011;31390;51.186;6.830;2022-11-20T08:12:45;43.20;;;34.63;;
45676;SDS011;31390;51.186;6.830;2022-11-20T08:15:31;44.47;;;35.33;;
45676;SDS011;31390;51.186;6.830;2022-11-20T08:20:47;44.27;;;34.27;;
45676;SDS011;31390;51.186;6.830;2022-11-20T08:23:14;46.37;;;35.20;;
45676;SDS011;31390;51.186;6.830;2022-11-20T08:25:40;45.43;;;35.20;;
45676;SDS011;31390;51.186;6.830;2022-11-20T08:28:07;41.20;;;32.50;;
45676;SDS011;31390;51.186;6.830;2022-11-20T08:30:45;44.40;;;34.47;;
45676;SDS011;31390;51.186;6.830;2022-11-20T08:33:12;43.17;;;33.77;;
45676;SDS011;31390;51.186;6.830;2022-11-20T08:35:38;39.30;;;32.07;;
45676;SDS011;31390;51.186;6.830;2022-11-20T08:38:07;41.27;;;33.83;;
45676;SDS011;31390;51.186;6.830;2022-11-20T08:40:34;35.43;;;28.47;;
45676;SDS011;31390;51.186;6.830;2022-11-20T08:43:01;36.80;;;30.50;;
45676;SDS011;31390;51.186;6.830;2022-11-20T08:45:27;31.37;;;26.70;;
45676;SDS011;31390;51.186;6.830;2022-11-20T08:47:59;33.47;;;28.00;;
45676;SDS011;31390;51.186;6.830;2022-11-20T08:50:26;31.80;;;27.83;;
45676;SDS011;31390;51.186;6.830;2022-11-20T08:52:53;30.30;;;27.03;;
45676;SDS011;31390;51.186;6.830;2022-11-20T08:55:19;30.50;;;26.73;;
45676;SDS011;31390;51.186;6.830;2022-11-20T08:57:46;30.03;;;25.83;;
45676;SDS011;31390;51.186;6.830;2022-11-20T09:00:16;31.87;;;25.80;;
45676;SDS011;31390;51.186;6.830;2022-11-20T09:02:43;28.00;;;24.30;;
45676;SDS011;31390;51.186;6.830;2022-11-20T09:05:11;27.13;;;24.17;;
45676;SDS011;31390;51.186;6.830;2022-11-20T09:07:39;29.00;;;25.17;;
45676;SDS011;31390;51.186;6.830;2022-11-20T09:10:06;26.23;;;23.47;;
45676;SDS011;31390;51.186;6.830;2022-11-20T09:12:51;22.13;;;19.73;;
45676;SDS011;31390;51.186;6.830;2022-11-20T09:15:19;25.07;;;22.37;;
45676;SDS011;31390;51.186;6.830;2022-11-20T09:20:18;24.70;;;22.17;;
45676;SDS011;31390;51.186;6.830;2022-11-20T09:22:45;26.43;;;23.53;;
45676;SDS011;31390;51.186;6.830;2022-11-20T09:25:11;31.13;;;27.83;;
45676;SDS011;31390;51.186;6.830;2022-11-20T09:27:38;33.30;;;28.87;;
45676;SDS011;31390;51.186;6.830;2022-11-20T09:30:05;30.63;;;27.35;;
45676;SDS011;31390;51.186;6.830;2022-11-20T09:32:31;29.87;;;25.83;;
45676;SDS011;31390;51.186;6.830;2022-11-20T09:34:58;29.50;;;25.87;;
45676;SDS011;31390;51.186;6.830;2022-11-20T09:37:27;29.70;;;26.50;;
45676;SDS011;31390;51.186;6.830;2022-11-20T09:39:54;26.70;;;24.00;;
45676;SDS011;31390;51.186;6.830;2022-11-20T09:42:40;27.77;;;24.77;;
45676;SDS011;31390;51.186;6.830;2022-11-20T09:45:29;27.67;;;24.73;;
45676;SDS011;31390;51.186;6.830;2022-11-20T09:48:03;26.40;;;23.60;;
45676;SDS011;31390;51.186;6.830;2022-11-20T09:50:33;27.80;;;23.20;;
45676;SDS011;31390;51.186;6.830;2022-11-20T09:55:52;24.73;;;22.13;;
45676;SDS011;31390;51.186;6.830;2022-11-20T09:58:42;25.47;;;22.77;;
45676;SDS011;31390;51.186;6.830;2022-11-20T10:01:12;24.47;;;21.80;;
45676;SDS011;31390;51.186;6.830;2022-11-20T10:06:15;25.40;;;22.70;;
45676;SDS011;31390;51.186;6.830;2022-11-20T10:14:29;23.20;;;20.67;;
45676;SDS011;31390;51.186;6.830;2022-11-20T10:17:02;25.53;;;21.87;;
45676;SDS011;31390;51.186;6.830;2022-11-20T10:24:44;22.30;;;19.90;;
45676;SDS011;31390;51.186;6.830;2022-11-20T10:30:29;24.73;;;22.10;;
45676;SDS011;31390;51.186;6.830;2022-11-20T10:32:58;26.30;;;22.00;;
45676;SDS011;31390;51.186;6.830;2022-11-20T10:35:28;25.00;;;22.30;;
45676;SDS011;31390;51.186;6.830;2022-11-20T10:38:00;25.50;;;22.43;;
45676;SDS011;31390;51.186;6.830;2022-11-20T10:40:29;24.03;;;21.53;;
45676;SDS011;31390;51.186;6.830;2022-11-20T10:45:43;22.43;;;20.13;;
45676;SDS011;31390;51.186;6.830;2022-11-20T10:48:21;24.73;;;20.40;;
45676;SDS011;31390;51.186;6.830;2022-11-20T10:50:57;22.52;;;20.17;;
45676;SDS011;31390;51.186;6.830;2022-11-20T10:56:15;24.88;;;22.17;;
45676;SDS011;31390;51.186;6.830;2022-11-20T11:01:39;24.33;;;20.10;;
45676;SDS011;31390;51.186;6.830;2022-11-20T11:07:09;24.90;;;22.10;;
45676;SDS011;31390;51.186;6.830;2022-11-20T11:09:38;23.80;;;21.13;;
45676;SDS011;31390;51.186;6.830;2022-11-20T11:12:07;23.87;;;21.00;;
45676;SDS011;31390;51.186;6.830;2022-11-20T11:14:43;24.43;;;21.87;;
45676;SDS011;31390;51.186;6.830;2022-11-20T11:17:18;24.97;;;21.10;;
45676;SDS011;31390;51.186;6.830;2022-11-20T11:19:56;26.23;;;22.80;;
45676;SDS011;31390;51.186;6.830;2022-11-20T11:22:23;26.45;;;23.38;;
45676;SDS011;31390;51.186;6.830;2022-11-20T11:24:52;25.25;;;21.90;;
45676;SDS011;31390;51.186;6.830;2022-11-20T11:27:19;26.43;;;22.50;;
45676;SDS011;31390;51.186;6.830;2022-11-20T11:29:46;24.57;;;21.13;;
45676;SDS011;31390;51.186;6.830;2022-11-20T11:32:20;24.97;;;22.27;;
45676;SDS011;31390;51.186;6.830;2022-11-20T11:35:04;26.13;;;22.20;;
45676;SDS011;31390;51.186;6.830;2022-11-20T11:37:35;24.85;;;22.02;;
45676;SDS011;31390;51.186;6.830;2022-11-20T11:40:04;25.77;;;23.00;;
45676;SDS011;31390;51.186;6.830;2022-11-20T11:42:56;27.33;;;23.23;;
45676;SDS011;31390;51.186;6.830;2022-11-20T11:45:24;25.37;;;22.63;;
45676;SDS011;31390;51.186;6.830;2022-11-20T11:47:52;25.53;;;22.73;;
45676;SDS011;31390;51.186;6.830;2022-11-20T11:50:21;25.43;;;22.70;;
45676;SDS011;31390;51.186;6.830;2022-11-20T11:53:07;26.33;;;23.50;;
45676;SDS011;31390;51.186;6.830;2022-11-20T11:58:08;23.50;;;20.33;;
45676;SDS011;31390;51.186;6.830;2022-11-20T12:00:38;24.03;;;21.53;;
45676;SDS011;31390;51.186;6.830;2022-11-20T12:03:10;24.97;;;22.30;;
45676;SDS011;31390;51.186;6.830;2022-11-20T12:05:49;23.15;;;20.05;;
45676;SDS011;31390;51.186;6.830;2022-11-20T12:08:19;27.67;;;24.70;;
45676;SDS011;31390;51.186;6.830;2022-11-20T12:16:44;26.07;;;22.87;;
45676;SDS011;31390;51.186;6.830;2022-11-20T12:19:13;27.60;;;24.67;;
45676;SDS011;31390;51.186;6.830;2022-11-20T12:26:59;26.90;;;23.90;;
45676;SDS011;31390;51.186;6.830;2022-11-20T12:34:33;26.37;;;23.57;;
45676;SDS011;31390;51.186;6.830;2022-11-20T12:39:35;28.50;;;24.90;;
45676;SDS011;31390;51.186;6.830;2022-11-20T12:45:06;25.63;;;22.42;;
45676;SDS011;31390;51.186;6.830;2022-11-20T12:52:56;27.13;;;23.20;;
45676;SDS011;31390;51.186;6.830;2022-11-20T12:58:23;29.23;;;25.87;;
45676;SDS011;31390;51.186;6.830;2022-11-20T13:00:50;31.37;;;25.53;;
45676;SDS011;31390;51.186;6.830;2022-11-20T13:05:55;34.35;;;27.58;;
45676;SDS011;31390;51.186;6.830;2022-11-20T13:08:33;30.95;;;26.13;;
45676;SDS011;31390;51.186;6.830;2022-11-20T13:11:12;32.70;;;28.92;;
45676;SDS011;31390;51.186;6.830;2022-11-20T13:16:35;45.80;;;36.77;;
45676;SDS011;31390;51.186;6.830;2022-11-20T13:19:09;42.70;;;35.37;;
45676;SDS011;31390;51.186;6.830;2022-11-20T13:21:41;40.70;;;33.97;;
45676;SDS011;31390;51.186;6.830;2022-11-20T13:24:20;38.27;;;31.50;;
45676;SDS011;31390;51.186;6.830;2022-11-20T13:29:38;65.30;;;45.75;;
45676;SDS011;31390;51.186;6.830;2022-11-20T13:32:17;47.03;;;35.47;;
45676;SDS011;31390;51.186;6.830;2022-11-20T13:34:53;43.67;;;33.40;;
45676;SDS011;31390;51.186;6.830;2022-11-20T13:37:25;48.38;;;36.30;;
45676;SDS011;31390;51.186;6.830;2022-11-20T13:39:52;43.40;;;35.40;;
45676;SDS011;31390;51.186;6.830;2022-11-20T13:42:26;45.92;;;35.65;;
45676;SDS011;31390;51.186;6.830;2022-11-20T13:44:54;40.17;;;33.40;;
45676;SDS011;31390;51.186;6.830;2022-11-20T13:47:26;50.70;;;37.40;;
45676;SDS011;31390;51.186;6.830;2022-11-20T13:49:57;41.35;;;32.55;;
45676;SDS011;31390;51.186;6.830;2022-11-20T14:00:24;46.15;;;35.47;;
45676;SDS011;31390;51.186;6.830;2022-11-20T14:05:37;54.75;;;40.60;;
45676;SDS011;31390;51.186;6.830;2022-11-20T14:08:05;59.27;;;43.73;;
45676;SDS011;31390;51.186;6.830;2022-11-20T14:10:33;48.57;;;37.60;;
45676;SDS011;31390;51.186;6.830;2022-11-20T14:13:15;45.75;;;34.15;;
45676;SDS011;31390;51.186;6.830;2022-11-20T14:15:43;50.60;;;37.47;;
45676;SDS011;31390;51.186;6.830;2022-11-20T14:18:14;48.45;;;34.30;;
45676;SDS011;31390;51.186;6.830;2022-11-20T14:20:41;38.40;;;29.58;;
45676;SDS011;31390;51.186;6.830;2022-11-20T14:23:09;44.20;;;32.50;;
45676;SDS011;31390;51.186;6.830;2022-11-20T14:25:36;46.90;;;36.43;;
45676;SDS011;31390;51.186;6.830;2022-11-20T14:28:05;40.42;;;32.92;;
45676;SDS011;31390;51.186;6.830;2022-11-20T14:30:45;40.97;;;31.60;;
45676;SDS011;31390;51.186;6.830;2022-11-20T14:33:15;43.00;;;32.42;;
45676;SDS011;31390;51.186;6.830;2022-11-20T14:35:47;34.80;;;27.83;;
45676;SDS011;31390;51.186;6.830;2022-11-20T14:38:15;42.53;;;32.30;;
45676;SDS011;31390;51.186;6.830;2022-11-20T14:40:42;39.17;;;29.65;;
45676;SDS011;31390;51.186;6.830;2022-11-20T14:43:24;41.15;;;31.45;;
45676;SDS011;31390;51.186;6.830;2022-11-20T14:46:01;41.00;;;32.47;;
45676;SDS011;31390;51.186;6.830;2022-11-20T14:48:37;41.95;;;30.40;;
45676;SDS011;31390;51.186;6.830;2022-11-20T14:51:04;38.90;;;30.03;;
45676;SDS011;31390;51.186;6.830;2022-11-20T14:53:30;40.73;;;30.63;;
45676;SDS011;31390;51.186;6.830;2022-11-20T14:55:58;35.07;;;28.67;;
45676;SDS011;31390;51.186;6.830;2022-11-20T14:58:26;33.37;;;27.17;;
45676;SDS011;31390;51.186;6.830;2022-11-20T15:00:56;34.30;;;27.00;;
45676;SDS011;31390;51.186;6.830;2022-11-20T15:03:22;33.90;;;27.90;;
45676;SDS011;31390;51.186;6.830;2022-11-20T15:05:56;36.57;;;28.53;;
45676;SDS011;31390;51.186;6.830;2022-11-20T15:08:26;36.03;;;28.52;;
45676;SDS011;31390;51.186;6.830;2022-11-20T15:10:52;33.87;;;27.63;;
45676;SDS011;31390;51.186;6.830;2022-11-20T15:13:32;35.03;;;27.10;;
45676;SDS011;31390;51.186;6.830;2022-11-20T15:16:00;34.60;;;29.07;;
45676;SDS011;31390;51.186;6.830;2022-11-20T15:18:31;30.73;;;25.00;;
45676;SDS011;31390;51.186;6.830;2022-11-20T15:21:00;31.90;;;25.50;;
45676;SDS011;31390;51.186;6.830;2022-11-20T15:23:28;33.73;;;26.50;;
45676;SDS011;31390;51.186;6.830;2022-11-20T15:25:55;31.07;;;25.47;;
45676;SDS011;31390;51.186;6.830;2022-11-20T15:30:54;33.33;;;25.33;;
45676;SDS011;31390;51.186;6.830;2022-11-20T15:33:23;37.80;;;29.93;;
45676;SDS011;31390;51.186;6.830;2022-11-20T15:35:53;33.13;;;26.58;;
45676;SDS011;31390;51.186;6.830;2022-11-20T15:38:19;44.17;;;31.17;;
45676;SDS011;31390;51.186;6.830;2022-11-20T15:40:47;45.08;;;31.63;;
45676;SDS011;31390;51.186;6.830;2022-11-20T15:43:14;39.43;;;28.97;;
45676;SDS011;31390;51.186;6.830;2022-11-20T15:45:44;80.35;;;41.92;;
45676;SDS011;31390;51.186;6.830;2022-11-20T15:48:16;48.30;;;32.63;;
45676;SDS011;31390;51.186;6.830;2022-11-20T15:50:51;57.53;;;35.77;;
45676;SDS011;31390;51.186;6.830;2022-11-20T15:53:19;65.90;;;39.00;;
45676;SDS011;31390;51.186;6.830;2022-11-20T15:55:45;48.80;;;32.73;;
45676;SDS011;31390;51.186;6.830;2022-11-20T15:58:12;63.50;;;38.17;;
45676;SDS011;31390;51.186;6.830;2022-11-20T16:00:38;80.03;;;42.13;;
45676;SDS011;31390;51.186;6.830;2022-11-20T16:03:05;81.73;;;44.60;;
45676;SDS011;31390;51.186;6.830;2022-11-20T16:05:31;71.27;;;40.90;;